Fort Logan, Colorado
Current Conditions -  °F | °C
As of 8:53 PM on Wednesday 22 Oct 2014 (Local Time) from KAPA Reporting Station
Broken Clouds Broken Clouds  
Wind Chill: 52°   Ceiling: 14000
Heat Index: 52°   Visibility: 10mi
Dew Point: 42°   Wind: 5mph
Humidity: 69%   Direction: 190°S
Pressure: 30.17"   Gusts: NA
Location:  39.6516°N, 105.039°W
Report Text: KAPA 230253Z 19004KT 10SM SCT110 BKN140 11/06 A3017 RMK AO2 SLP186 T01110056 51014
Loading
Personal Weather Stations






























Interactive Weather Map
Tropical Storm Tracking
New forecast layout! Learn more

10-Day Weather Forecast

Advertisements
Track Severe Weather on mobile